< Typhoon 199606 1996 Season Typhoon 199608 >
Typhoon 199607 (FRANKIE)
General InformationTrack Information on Google MapsDetailed Wind InformationList of All Images || Disaster Info.ResourceGoogle EarthGE AnimationAtom FeedGeoJSON
Detalied Best Track (Time Zone = UTC)
Year Month Day Hour Lat. Long. Pressure (hPa) Wind (kt) Class Image Chart
1996 7 20 06 15.5 115.5 1000 0 2 Image Chart
1996 7 20 12 15.8 114.5 1000 0 2 Image Chart
1996 7 20 18 16.1 113.8 1000 0 2 Image Chart
1996 7 21 00 16.5 113.2 998 0 2 Image Chart
1996 7 21 06 17.0 112.8 994 0 2 Image Chart
1996 7 21 12 17.2 112.3 994 0 2 Image Chart
1996 7 21 18 17.4 111.8 994 0 2 Image Chart
1996 7 22 00 18.0 111.3 990 35 3 Image Chart
1996 7 22 06 18.6 110.9 985 45 3 Image Chart
1996 7 22 12 19.0 110.4 985 45 3 Image Chart
1996 7 22 18 19.2 109.5 980 45 3 Image Chart
1996 7 23 00 19.5 108.6 980 45 3 Image Chart
1996 7 23 06 19.6 108.0 975 50 4 Image Chart
1996 7 23 12 19.7 107.2 975 50 4 Image Chart
1996 7 23 18 20.1 106.4 980 45 3 Image Chart
1996 7 24 00 20.2 105.6 985 45 3 Image Chart
1996 7 24 06 20.0 104.5 990 40 3 Image Chart
1996 7 24 12 20.2 103.7 994 40 3 Image Chart
1996 7 24 18 20.5 103.1 998 0 2 Image Chart
1996 7 25 00 21.3 102.3 998 0 2 Image Chart
1996 7 25 06 21.8 101.7 998 0 2 Image Chart
1996 7 25 12 22.2 101.3 1000 0 2 Image Chart
1996 7 25 18 22.7 100.7 1000 0 2 Image Chart
Japan Meteorological Agency Best Track Data | Correction Date : 1997-01-07
< Typhoon 199606 1996 Season Typhoon 199608 >

Help